createdAt,value
2022-12-22T00:00:23.607Z,29.60
2022-12-22T00:03:08.839Z,31.63
2022-12-22T00:05:54.230Z,28.13
2022-12-22T00:08:39.279Z,34.63
2022-12-22T00:11:27.714Z,31.03
2022-12-22T00:14:14.190Z,27.40
2022-12-22T00:16:59.786Z,31.73
2022-12-22T00:19:46.269Z,26.90
2022-12-22T00:22:33.175Z,26.13
2022-12-22T00:25:18.447Z,28.80
2022-12-22T00:28:03.729Z,28.87
2022-12-22T00:30:50.650Z,33.00
2022-12-22T00:33:37.805Z,33.60
2022-12-22T00:36:23.926Z,28.33
2022-12-22T00:39:10.897Z,29.00
2022-12-22T00:41:56.302Z,35.37
2022-12-22T00:44:41.844Z,38.00
2022-12-22T00:47:31.693Z,37.90
2022-12-22T00:50:16.937Z,33.93
2022-12-22T00:53:02.698Z,35.77
2022-12-22T00:55:48.858Z,27.70
2022-12-22T00:58:35.788Z,30.20
2022-12-22T01:01:21.241Z,35.17
2022-12-22T01:04:07.721Z,30.57
2022-12-22T01:06:55.008Z,29.93
2022-12-22T01:09:41.451Z,31.93
2022-12-22T01:12:32.011Z,30.97
2022-12-22T01:15:17.196Z,34.53
2022-12-22T01:18:02.476Z,27.33
2022-12-22T01:20:50.038Z,27.93
2022-12-22T01:23:35.930Z,28.83
2022-12-22T01:26:21.025Z,30.00
2022-12-22T01:29:06.518Z,25.53
2022-12-22T01:31:51.855Z,30.43
2022-12-22T01:34:37.447Z,31.30
2022-12-22T01:37:24.159Z,27.20
2022-12-22T01:40:09.655Z,27.50
2022-12-22T01:42:54.771Z,30.97
2022-12-22T01:45:42.094Z,29.20
2022-12-22T01:48:31.138Z,33.47
2022-12-22T01:51:16.851Z,27.77
2022-12-22T01:54:03.938Z,24.93
2022-12-22T01:56:49.511Z,32.50
2022-12-22T01:59:34.758Z,30.13
2022-12-22T02:02:23.761Z,28.53
2022-12-22T02:05:09.571Z,32.03
2022-12-22T02:08:12.203Z,26.47
2022-12-22T02:11:14.190Z,30.43
2022-12-22T02:14:05.034Z,28.67
2022-12-22T02:16:53.622Z,35.47
2022-12-22T02:19:51.290Z,26.77
2022-12-22T02:22:42.371Z,27.07
2022-12-22T02:25:34.029Z,25.40
2022-12-22T02:28:21.952Z,29.37
2022-12-22T02:31:08.319Z,30.20
2022-12-22T02:33:53.389Z,24.33
2022-12-22T02:36:46.570Z,23.83
2022-12-22T02:39:37.138Z,23.73
2022-12-22T02:42:29.667Z,28.90
2022-12-22T02:45:25.341Z,27.33
2022-12-22T02:48:15.740Z,28.50
2022-12-22T02:51:04.964Z,23.97
2022-12-22T02:53:50.485Z,22.53
2022-12-22T02:56:36.009Z,27.50
2022-12-22T02:59:21.505Z,27.73
2022-12-22T03:02:08.375Z,27.37
2022-12-22T03:04:53.855Z,28.93
2022-12-22T03:07:39.250Z,20.63
2022-12-22T03:10:26.060Z,24.13
2022-12-22T03:13:11.449Z,22.87
2022-12-22T03:15:56.845Z,27.93
2022-12-22T03:18:43.631Z,24.33
2022-12-22T03:21:28.734Z,22.20
2022-12-22T03:24:14.127Z,22.97
2022-12-22T03:26:41.840Z,20.20
2022-12-22T03:29:09.464Z,23.37
2022-12-22T03:31:37.209Z,24.47
2022-12-22T03:34:06.215Z,20.87
2022-12-22T03:36:33.917Z,21.40
2022-12-22T03:39:01.696Z,23.40
2022-12-22T03:41:47.079Z,22.80
2022-12-22T03:44:32.450Z,23.87
2022-12-22T03:47:00.464Z,22.10
2022-12-22T03:49:29.442Z,19.17
2022-12-22T03:51:57.082Z,21.30
2022-12-22T03:54:26.010Z,21.07
2022-12-22T03:56:54.409Z,21.13
2022-12-22T03:59:22.660Z,18.43
2022-12-22T04:01:51.685Z,20.50
2022-12-22T04:04:20.914Z,21.03
2022-12-22T04:06:50.238Z,19.60
2022-12-22T04:09:17.982Z,20.07
2022-12-22T04:12:03.149Z,25.43
2022-12-22T04:14:34.176Z,21.77
2022-12-22T04:17:02.684Z,20.37
2022-12-22T04:19:30.397Z,20.80
2022-12-22T04:21:59.449Z,23.07
2022-12-22T04:24:27.015Z,22.40
2022-12-22T04:26:54.631Z,25.67
2022-12-22T04:29:22.375Z,22.33
2022-12-22T04:31:50.128Z,22.77
2022-12-22T04:34:17.727Z,20.90
2022-12-22T04:36:45.369Z,24.20
2022-12-22T04:39:14.282Z,22.17
2022-12-22T04:41:41.860Z,25.90
2022-12-22T04:44:09.566Z,24.07
2022-12-22T04:46:37.138Z,25.27
2022-12-22T04:49:05.022Z,24.70
2022-12-22T04:51:32.720Z,22.03
2022-12-22T04:54:00.304Z,19.53
2022-12-22T04:56:29.222Z,20.47
2022-12-22T04:58:56.827Z,21.03
2022-12-22T05:01:24.518Z,21.50
2022-12-22T05:03:52.258Z,26.60
2022-12-22T05:06:19.877Z,18.90
2022-12-22T05:08:47.570Z,19.50
2022-12-22T05:11:15.117Z,22.37
2022-12-22T05:13:44.122Z,20.30
2022-12-22T05:16:14.496Z,22.17
2022-12-22T05:18:43.478Z,19.33
2022-12-22T05:21:12.985Z,20.40
2022-12-22T05:23:41.139Z,20.97
2022-12-22T05:26:09.401Z,20.90
2022-12-22T05:28:37.467Z,23.90
2022-12-22T05:31:10.198Z,26.13
2022-12-22T05:33:37.979Z,24.40
2022-12-22T05:36:05.972Z,24.77
2022-12-22T05:38:33.828Z,21.80
2022-12-22T05:41:04.247Z,23.63
2022-12-22T05:43:32.545Z,22.83
2022-12-22T05:46:03.108Z,26.00
2022-12-22T05:48:38.108Z,22.13
2022-12-22T05:51:07.161Z,27.13
2022-12-22T05:53:34.886Z,31.10
2022-12-22T05:56:02.574Z,26.00
2022-12-22T05:58:30.451Z,27.80
2022-12-22T06:01:25.096Z,23.83
2022-12-22T06:04:00.397Z,25.20
2022-12-22T06:12:09.013Z,29.60
2022-12-22T06:14:37.111Z,29.30
2022-12-22T06:17:04.928Z,26.90
2022-12-22T06:19:34.334Z,22.97
2022-12-22T06:22:02.405Z,26.30
2022-12-22T06:24:30.239Z,23.37
2022-12-22T06:29:40.688Z,26.30
2022-12-22T06:32:09.617Z,26.30
2022-12-22T06:34:40.967Z,29.73
2022-12-22T06:37:11.249Z,31.80
2022-12-22T06:39:39.052Z,30.00
2022-12-22T06:42:39.424Z,26.27
2022-12-22T06:45:08.488Z,26.57
2022-12-22T06:47:36.767Z,34.83
2022-12-22T06:50:07.863Z,31.77
2022-12-22T06:52:43.188Z,31.43
2022-12-22T06:57:57.826Z,30.13
2022-12-22T07:00:27.177Z,28.60
2022-12-22T07:17:04.854Z,33.17
2022-12-22T07:22:16.923Z,29.00
2022-12-22T07:27:57.675Z,34.87
2022-12-22T07:30:27.608Z,26.23
2022-12-22T07:32:56.137Z,33.33
2022-12-22T07:35:25.004Z,31.53
2022-12-22T07:37:54.277Z,30.30
2022-12-22T07:40:27.782Z,28.67
2022-12-22T07:42:57.610Z,33.40
2022-12-22T07:45:25.505Z,31.17
2022-12-22T07:48:26.531Z,27.20
2022-12-22T07:51:47.427Z,28.80
2022-12-22T07:54:57.857Z,26.23
2022-12-22T07:57:39.722Z,34.10
2022-12-22T08:00:08.791Z,30.10
2022-12-22T08:02:39.982Z,34.60
2022-12-22T08:05:09.947Z,30.40
2022-12-22T08:07:37.936Z,34.13
2022-12-22T08:10:08.609Z,46.07
2022-12-22T08:12:36.600Z,37.97
2022-12-22T08:15:05.724Z,37.13
2022-12-22T08:17:33.563Z,41.43
2022-12-22T08:20:01.377Z,32.70
2022-12-22T08:22:30.201Z,50.20
2022-12-22T08:25:00.440Z,38.60
2022-12-22T08:28:19.060Z,35.57
2022-12-22T08:30:47.541Z,31.70
2022-12-22T08:33:16.795Z,30.70
2022-12-22T08:35:44.829Z,40.20
2022-12-22T08:38:14.344Z,32.73
2022-12-22T08:40:47.135Z,28.23
2022-12-22T08:43:19.277Z,26.30
2022-12-22T08:45:58.363Z,33.37
2022-12-22T08:48:32.168Z,40.37
2022-12-22T08:58:04.861Z,31.17
2022-12-22T09:00:36.948Z,30.10
2022-12-22T09:03:18.860Z,39.17
2022-12-22T09:06:02.491Z,30.00
2022-12-22T09:08:30.314Z,34.83
2022-12-22T09:10:58.279Z,31.13
2022-12-22T09:13:26.308Z,34.70
2022-12-22T09:16:13.843Z,26.30
2022-12-22T09:18:41.924Z,31.13
2022-12-22T09:21:09.767Z,25.93
2022-12-22T09:23:51.743Z,26.00
2022-12-22T09:29:45.703Z,22.00
2022-12-22T09:32:16.185Z,21.60
2022-12-22T09:35:09.398Z,20.43
2022-12-22T09:37:40.421Z,32.67
2022-12-22T09:40:14.841Z,25.93
2022-12-22T09:42:42.668Z,19.93
2022-12-22T09:45:28.700Z,18.87
2022-12-22T09:51:43.903Z,24.83
2022-12-22T10:02:06.771Z,30.87
2022-12-22T10:05:16.851Z,30.33
2022-12-22T10:11:08.484Z,33.23
2022-12-22T10:13:36.356Z,33.80
2022-12-22T10:23:50.104Z,32.87
2022-12-22T10:47:29.403Z,31.07
2022-12-22T10:50:12.860Z,29.13
2022-12-22T10:52:40.991Z,29.03
2022-12-22T10:55:47.655Z,29.23
2022-12-22T10:58:40.164Z,37.63
2022-12-22T11:01:20.478Z,30.70
2022-12-22T11:03:59.633Z,35.83
2022-12-22T11:25:11.985Z,27.60
2022-12-22T11:27:58.254Z,27.93
2022-12-22T11:30:32.609Z,28.70
2022-12-22T11:33:08.548Z,30.20
2022-12-22T11:35:54.577Z,25.50
2022-12-22T11:39:06.882Z,29.83
2022-12-22T11:41:58.763Z,24.67
2022-12-22T11:45:18.721Z,29.83
2022-12-22T11:47:57.088Z,22.93
2022-12-22T11:50:59.082Z,22.57
2022-12-22T11:53:40.936Z,22.70
2022-12-22T11:56:21.964Z,26.33
2022-12-22T11:59:00.394Z,22.07
2022-12-22T12:01:48.137Z,27.03
2022-12-22T12:04:33.787Z,26.60
2022-12-22T12:07:11.533Z,24.60
2022-12-22T12:10:06.321Z,31.07
2022-12-22T12:12:54.386Z,23.63
2022-12-22T12:15:29.707Z,24.83
2022-12-22T12:18:11.316Z,23.23
2022-12-22T12:20:48.384Z,27.90
2022-12-22T12:23:31.767Z,22.20
2022-12-22T12:26:04.729Z,21.40
2022-12-22T12:28:39.258Z,24.77
2022-12-22T12:31:08.362Z,22.63
2022-12-22T12:33:39.631Z,23.10
2022-12-22T12:36:14.337Z,19.00
2022-12-22T12:41:50.426Z,21.90
2022-12-22T12:48:40.498Z,21.70
2022-12-22T12:51:45.588Z,22.10
2022-12-22T12:54:35.884Z,20.67
2022-12-22T12:57:12.665Z,22.20
2022-12-22T12:59:47.646Z,22.13
2022-12-22T13:02:35.348Z,21.60
2022-12-22T13:05:14.295Z,19.43
2022-12-22T13:08:07.802Z,22.33
2022-12-22T13:10:39.102Z,21.40
2022-12-22T13:13:07.437Z,27.50
2022-12-22T13:15:37.225Z,18.57
2022-12-22T13:18:05.922Z,20.73
2022-12-22T13:20:36.069Z,17.23
2022-12-22T13:23:05.524Z,20.33
2022-12-22T13:25:42.555Z,15.27
2022-12-22T13:28:16.669Z,11.80
2022-12-22T13:30:47.513Z,16.40
2022-12-22T13:33:17.559Z,16.27
2022-12-22T13:35:49.227Z,12.13
2022-12-22T13:38:30.263Z,11.63
2022-12-22T13:41:00.157Z,16.03
2022-12-22T13:43:29.189Z,15.20
2022-12-22T13:45:58.058Z,16.53
2022-12-22T13:48:27.247Z,23.83
2022-12-22T13:50:56.690Z,20.23
2022-12-22T13:56:22.004Z,15.57
2022-12-22T13:58:54.234Z,17.17
2022-12-22T14:01:22.733Z,12.30
2022-12-22T14:04:01.704Z,13.13
2022-12-22T14:06:31.125Z,15.27
2022-12-22T14:09:16.403Z,13.07
2022-12-22T14:11:51.998Z,17.83
2022-12-22T14:14:23.298Z,16.60
2022-12-22T14:16:52.486Z,16.50
2022-12-22T14:19:21.933Z,17.50
2022-12-22T14:22:01.866Z,14.73
2022-12-22T14:24:38.349Z,14.50
2022-12-22T14:27:10.377Z,21.77
2022-12-22T14:29:38.245Z,28.80
2022-12-22T14:32:06.382Z,17.53
2022-12-22T14:34:35.739Z,15.93
2022-12-22T14:37:03.821Z,20.00
2022-12-22T14:39:33.344Z,26.83
2022-12-22T14:42:03.039Z,17.97
2022-12-22T14:44:34.931Z,23.97
2022-12-22T14:47:07.296Z,19.93
2022-12-22T14:49:35.841Z,23.10
2022-12-22T14:52:07.893Z,20.87
2022-12-22T14:54:36.183Z,20.57
2022-12-22T14:57:13.343Z,28.73
2022-12-22T14:59:59.525Z,22.63
2022-12-22T15:02:36.646Z,17.47
2022-12-22T15:05:26.591Z,19.40
2022-12-22T15:08:11.918Z,22.07
2022-12-22T15:10:43.323Z,18.30
2022-12-22T15:13:14.413Z,23.43
2022-12-22T15:15:44.053Z,23.43
2022-12-22T15:18:13.696Z,22.80
2022-12-22T15:20:41.660Z,18.60
2022-12-22T15:23:12.624Z,20.83
2022-12-22T15:25:40.331Z,22.63
2022-12-22T15:28:08.259Z,17.50
2022-12-22T15:30:37.519Z,22.27
2022-12-22T15:33:12.757Z,21.43
2022-12-22T15:35:41.179Z,29.00
2022-12-22T15:38:13.262Z,28.70
2022-12-22T15:40:41.015Z,24.00
2022-12-22T15:43:22.293Z,20.00
2022-12-22T15:45:56.719Z,26.67
2022-12-22T15:48:29.571Z,22.27
2022-12-22T15:50:57.435Z,30.17
2022-12-22T15:53:25.596Z,21.37
2022-12-22T15:55:55.330Z,24.17
2022-12-22T15:58:26.023Z,24.90
2022-12-22T16:00:54.110Z,28.33
2022-12-22T16:03:22.071Z,27.10
2022-12-22T16:05:52.757Z,20.30
2022-12-22T16:08:24.264Z,18.80
2022-12-22T16:10:51.998Z,28.13
2022-12-22T16:13:21.786Z,29.47
2022-12-22T16:15:49.587Z,26.60
2022-12-22T16:18:17.605Z,23.00
2022-12-22T16:20:45.635Z,21.03
2022-12-22T16:23:18.190Z,22.30
2022-12-22T16:25:47.038Z,20.60
2022-12-22T16:28:17.849Z,28.97
2022-12-22T16:30:45.894Z,20.47
2022-12-22T16:33:13.989Z,21.70
2022-12-22T16:35:42.277Z,27.83
2022-12-22T16:38:17.962Z,29.67
2022-12-22T16:40:48.910Z,25.13
2022-12-22T16:46:07.414Z,30.20
2022-12-22T16:48:37.727Z,24.67
2022-12-22T16:51:05.923Z,21.00
2022-12-22T16:53:33.978Z,20.33
2022-12-22T16:56:03.383Z,17.00
2022-12-22T16:58:31.285Z,24.30
2022-12-22T17:00:59.790Z,26.07
2022-12-22T17:03:28.747Z,22.90
2022-12-22T17:05:59.611Z,27.50
2022-12-22T17:08:29.539Z,25.33
2022-12-22T17:11:03.374Z,22.40
2022-12-22T17:13:37.673Z,19.43
2022-12-22T17:16:06.145Z,16.87
2022-12-22T17:18:34.397Z,32.30
2022-12-22T17:21:02.135Z,21.10
2022-12-22T17:23:32.878Z,18.00
2022-12-22T17:26:02.568Z,17.00
2022-12-22T17:28:30.644Z,25.00
2022-12-22T17:30:59.721Z,14.33
2022-12-22T17:33:27.611Z,22.50
2022-12-22T17:35:57.158Z,20.43
2022-12-22T17:38:26.277Z,20.07
2022-12-22T17:40:54.988Z,15.97
2022-12-22T17:43:25.267Z,20.70
2022-12-22T17:45:54.020Z,19.30
2022-12-22T17:48:23.032Z,25.07
2022-12-22T17:50:50.786Z,20.33
2022-12-22T17:53:20.172Z,24.80
2022-12-22T17:58:36.297Z,21.33
2022-12-22T18:01:03.975Z,20.37
2022-12-22T18:03:33.929Z,20.23
2022-12-22T18:06:01.641Z,23.93
2022-12-22T18:08:29.237Z,19.83
2022-12-22T18:10:56.858Z,21.10
2022-12-22T18:13:26.151Z,21.57
2022-12-22T18:15:55.722Z,19.20
2022-12-22T18:18:23.522Z,16.70
2022-12-22T18:21:06.676Z,21.47
2022-12-22T18:23:37.320Z,26.90
2022-12-22T18:26:05.440Z,27.23
2022-12-22T18:28:33.026Z,31.13
2022-12-22T18:31:00.710Z,22.43
2022-12-22T18:33:28.380Z,48.83
2022-12-22T18:35:58.526Z,26.50
2022-12-22T18:38:27.740Z,26.10
2022-12-22T18:40:55.508Z,22.03
2022-12-22T18:43:23.370Z,23.80
2022-12-22T18:45:51.151Z,24.13
2022-12-22T18:48:18.779Z,27.03
2022-12-22T18:50:46.611Z,24.50
2022-12-22T18:53:24.212Z,30.73
2022-12-22T18:55:51.834Z,22.97
2022-12-22T18:58:19.680Z,20.80
2022-12-22T19:00:48.043Z,23.43
2022-12-22T19:03:21.510Z,26.97
2022-12-22T19:05:49.474Z,23.50
2022-12-22T19:08:20.230Z,28.10
2022-12-22T19:10:50.049Z,28.17
2022-12-22T19:13:24.636Z,25.13
2022-12-22T19:15:52.651Z,21.47
2022-12-22T19:18:26.683Z,24.40
2022-12-22T19:20:55.551Z,27.90
2022-12-22T19:23:26.092Z,29.23
2022-12-22T19:25:55.755Z,30.00
2022-12-22T19:28:26.868Z,29.37
2022-12-22T19:30:55.220Z,32.10
2022-12-22T19:33:25.872Z,26.77
2022-12-22T19:35:54.250Z,28.87
2022-12-22T19:38:25.525Z,28.03
2022-12-22T19:40:55.565Z,21.57
2022-12-22T19:43:23.293Z,31.57
2022-12-22T19:45:52.481Z,26.43
2022-12-22T19:48:21.526Z,25.73
2022-12-22T19:50:49.499Z,24.70
2022-12-22T19:53:17.371Z,27.77
2022-12-22T19:55:48.342Z,24.77
2022-12-22T19:58:18.142Z,28.63
2022-12-22T20:00:46.686Z,24.33
2022-12-22T20:03:16.435Z,27.23
2022-12-22T20:05:44.099Z,28.13
2022-12-22T20:08:12.470Z,23.13
2022-12-22T20:10:40.665Z,27.87
2022-12-22T20:13:15.288Z,29.63
2022-12-22T20:15:43.533Z,19.20
2022-12-22T20:18:16.313Z,35.33
2022-12-22T20:20:45.395Z,27.10
2022-12-22T20:23:15.564Z,25.10
2022-12-22T20:25:45.568Z,26.40
2022-12-22T20:28:17.859Z,31.60
2022-12-22T20:30:46.471Z,26.13
2022-12-22T20:33:14.618Z,28.90
2022-12-22T20:35:42.867Z,19.90
2022-12-22T20:38:16.442Z,28.20
2022-12-22T20:40:44.749Z,20.33
2022-12-22T20:43:19.257Z,33.43
2022-12-22T20:45:48.873Z,30.30
2022-12-22T20:48:28.326Z,27.90
2022-12-22T20:50:56.154Z,26.43
2022-12-22T20:53:23.862Z,29.10
2022-12-22T20:55:51.535Z,26.80
2022-12-22T20:58:23.240Z,27.00
2022-12-22T21:00:51.674Z,26.70
2022-12-22T21:03:20.052Z,24.90
2022-12-22T21:05:48.793Z,32.57
2022-12-22T21:08:20.771Z,29.93
2022-12-22T21:10:50.057Z,28.40
2022-12-22T21:13:18.422Z,27.63
2022-12-22T21:15:50.288Z,31.10
2022-12-22T21:18:22.131Z,32.20
2022-12-22T21:20:50.524Z,27.37
2022-12-22T21:23:18.464Z,25.07
2022-12-22T21:25:48.487Z,25.90
2022-12-22T21:28:21.172Z,27.73
2022-12-22T21:30:51.268Z,30.37
2022-12-22T21:33:19.134Z,31.13
2022-12-22T21:35:46.752Z,29.30
2022-12-22T21:38:17.292Z,39.80
2022-12-22T21:40:46.755Z,36.97
2022-12-22T21:43:14.681Z,40.73
2022-12-22T21:45:43.544Z,30.23
2022-12-22T21:48:14.894Z,36.23
2022-12-22T21:50:42.775Z,30.00
2022-12-22T21:53:10.402Z,31.37
2022-12-22T21:55:39.541Z,33.10
2022-12-22T21:58:08.975Z,28.97
2022-12-22T22:00:36.700Z,40.13
2022-12-22T22:03:04.874Z,29.57
2022-12-22T22:05:35.701Z,27.23
2022-12-22T22:08:04.867Z,34.13
2022-12-22T22:10:34.699Z,33.23
2022-12-22T22:13:03.259Z,36.13
2022-12-22T22:15:31.713Z,33.47
2022-12-22T22:18:04.662Z,27.10
2022-12-22T22:20:36.101Z,36.87
2022-12-22T22:23:03.849Z,28.33
2022-12-22T22:25:31.568Z,28.87
2022-12-22T22:28:00.272Z,26.97
2022-12-22T22:30:28.390Z,27.20
2022-12-22T22:32:56.582Z,35.97
2022-12-22T22:35:25.073Z,34.43
2022-12-22T22:37:55.048Z,32.77
2022-12-22T22:40:24.105Z,26.47
2022-12-22T22:42:51.982Z,33.40
2022-12-22T22:45:23.341Z,33.53
2022-12-22T22:47:51.733Z,33.90
2022-12-22T22:50:19.917Z,28.27
2022-12-22T22:52:47.928Z,34.43
2022-12-22T22:55:17.360Z,32.00
2022-12-22T22:57:44.963Z,36.60
2022-12-22T23:00:15.693Z,36.83
2022-12-22T23:02:43.669Z,39.90
2022-12-22T23:05:15.545Z,44.27
2022-12-22T23:07:48.269Z,30.13
2022-12-22T23:10:17.371Z,32.30
2022-12-22T23:12:45.047Z,32.70
2022-12-22T23:15:12.704Z,29.83
2022-12-22T23:17:40.480Z,35.70
2022-12-22T23:20:09.344Z,37.10
2022-12-22T23:22:38.889Z,28.73
2022-12-22T23:25:07.222Z,33.33
2022-12-22T23:27:36.201Z,34.60
2022-12-22T23:30:04.728Z,36.20
2022-12-22T23:32:32.307Z,41.93
2022-12-22T23:35:00.113Z,33.27
2022-12-22T23:37:27.744Z,30.53
2022-12-22T23:39:56.154Z,33.33
2022-12-22T23:42:29.771Z,31.97
2022-12-22T23:44:58.646Z,36.30
2022-12-22T23:47:26.227Z,29.43
2022-12-22T23:49:54.777Z,30.83
2022-12-22T23:52:22.364Z,31.47
2022-12-22T23:54:49.901Z,35.37
2022-12-22T23:57:17.610Z,32.37
2022-12-22T23:59:45.226Z,37.40
